Time;durP1;ratioP1;P1;durP2;ratioP2;P2;SDS_P1;SDS_P2;PMS_P1;PMS_P2;Temp;Humidity;BMP_temperature;BMP_pressure;BME280_temperature;BME280_humidity;BME280_pressure;Samples;Min_cycle;Max_cycle;Signal;HPM_P1;HPM_P2
2022/01/04 00:00:26;;;;;;;14.40;10.20;;;;;;;6.68;73.09;97070.61;109599;1274;22466;-60
2022/01/04 00:03:08;;;;;;;12.10;9.50;;;;;;;6.69;73.43;97069.96;109640;1272;22556;-59
2022/01/04 00:05:38;;;;;;;12.70;8.80;;;;;;;6.70;73.15;97068.97;109539;1274;138332;-60
2022/01/04 00:08:11;;;;;;;15.00;9.70;;;;;;;6.70;73.86;97072.27;109677;1274;22558;-60
2022/01/04 00:10:43;;;;;;;13.60;8.80;;;;;;;6.68;73.76;97061.56;109613;1274;22920;-61
2022/01/04 00:13:24;;;;;;;15.30;9.70;;;;;;;6.64;73.91;97059.65;109658;1274;22476;-61
2022/01/04 00:15:56;;;;;;;12.80;8.20;;;;;;;6.59;74.19;97059.03;109485;1275;22624;-60
2022/01/04 00:18:26;;;;;;;12.40;8.10;;;;;;;6.58;74.30;97056.21;109592;1276;22433;-62
2022/01/04 00:20:58;;;;;;;10.60;7.60;;;;;;;6.62;74.23;97058.83;109507;1274;22483;-60
2022/01/04 00:23:28;;;;;;;11.30;7.80;;;;;;;6.62;74.43;97057.86;109677;1274;22517;-62
2022/01/04 00:25:56;;;;;;;10.50;7.40;;;;;;;6.59;74.56;97058.23;109648;1274;22418;-62
2022/01/04 00:28:25;;;;;;;10.40;7.40;;;;;;;6.55;74.32;97049.08;109645;1271;23158;-62
2022/01/04 00:30:54;;;;;;;10.10;6.70;;;;;;;6.53;74.37;97048.05;109666;1274;22502;-62
2022/01/04 00:33:24;;;;;;;12.10;7.90;;;;;;;6.52;74.56;97044.30;109669;1274;22539;-61
2022/01/04 00:36:00;;;;;;;9.50;7.50;;;;;;;6.53;74.64;97048.42;109535;1274;140366;-60
2022/01/04 00:38:28;;;;;;;10.30;7.50;;;;;;;6.55;74.32;97041.81;109626;1274;22487;-61
2022/01/04 00:41:00;;;;;;;9.30;7.30;;;;;;;6.56;74.96;97036.49;109664;1274;22542;-62
2022/01/04 00:43:34;;;;;;;10.40;6.90;;;;;;;6.54;74.85;97031.71;109648;1274;23219;-62
2022/01/04 00:46:03;;;;;;;9.20;6.70;;;;;;;6.51;75.29;97033.90;109645;1274;22571;-61
2022/01/04 00:51:01;;;;;;;10.30;6.70;;;;;;;6.47;75.15;97023.90;109657;1274;22502;-62
2022/01/04 00:53:31;;;;;;;9.90;7.10;;;;;;;6.48;75.06;97028.70;109474;1275;23403;-62
2022/01/04 00:56:01;;;;;;;10.30;7.70;;;;;;;6.47;75.48;97031.92;109627;1274;22490;-62
2022/01/04 00:58:30;;;;;;;10.70;7.30;;;;;;;6.44;75.57;97023.64;109595;1274;23365;-62
2022/01/04 01:00:59;;;;;;;11.20;7.30;;;;;;;6.41;75.70;97023.20;109623;1274;22353;-61
2022/01/04 01:03:32;;;;;;;10.80;7.70;;;;;;;6.39;76.22;97024.10;109623;1274;22516;-62
2022/01/04 01:06:00;;;;;;;9.60;8.00;;;;;;;6.40;75.74;97028.73;109526;1274;138256;-62
2022/01/04 01:08:28;;;;;;;10.20;6.70;;;;;;;6.39;76.02;97026.02;109631;1274;22558;-62
2022/01/04 01:10:56;;;;;;;9.10;6.80;;;;;;;6.36;76.14;97022.20;109597;1272;22478;-62
2022/01/04 01:13:26;;;;;;;9.90;7.20;;;;;;;6.32;76.20;97024.56;109609;1274;22479;-62
2022/01/04 01:15:59;;;;;;;10.70;7.10;;;;;;;6.28;76.30;97023.68;109527;1274;23244;-62
2022/01/04 01:18:29;;;;;;;8.70;6.30;;;;;;;6.24;76.99;97016.03;109547;1274;23317;-61
2022/01/04 01:21:00;;;;;;;9.60;7.00;;;;;;;6.21;76.83;97013.79;109554;1274;22481;-61
2022/01/04 01:23:29;;;;;;;7.90;5.50;;;;;;;6.17;76.84;97009.25;109621;1274;22425;-61
2022/01/04 01:25:58;;;;;;;9.10;6.90;;;;;;;6.11;77.29;97005.05;109554;1275;22479;-62
2022/01/04 01:28:28;;;;;;;9.10;6.20;;;;;;;6.05;76.98;97006.11;109534;1274;23268;-61
2022/01/04 01:30:56;;;;;;;7.50;5.50;;;;;;;6.01;77.08;97003.17;109536;1275;23680;-62
2022/01/04 01:33:27;;;;;;;9.80;6.00;;;;;;;5.99;77.43;97006.84;109617;1275;22445;-61
2022/01/04 01:36:00;;;;;;;10.20;6.90;;;;;;;5.98;77.56;97009.32;109613;1275;22449;-62
2022/01/04 01:38:29;;;;;;;8.00;5.80;;;;;;;5.96;77.73;97007.80;109517;1275;22358;-62
2022/01/04 01:41:01;;;;;;;11.00;6.20;;;;;;;5.89;78.42;97010.38;109302;1276;137506;-62
2022/01/04 01:43:29;;;;;;;8.70;5.60;;;;;;;5.83;79.25;97007.47;109637;1275;22544;-60
2022/01/04 01:45:58;;;;;;;8.20;6.00;;;;;;;5.80;79.07;97003.30;109648;1274;22559;-60
2022/01/04 01:48:26;;;;;;;7.70;5.90;;;;;;;5.82;79.16;97005.98;109623;1274;22441;-60
2022/01/04 01:50:54;;;;;;;7.10;6.00;;;;;;;5.83;79.48;97001.74;109657;1273;22491;-60
2022/01/04 01:53:22;;;;;;;9.80;7.00;;;;;;;5.84;80.04;96998.73;109642;1274;22484;-61
2022/01/04 01:55:50;;;;;;;11.00;7.20;;;;;;;5.90;79.13;96992.87;109639;1274;23227;-60
2022/01/04 01:58:18;;;;;;;8.90;6.40;;;;;;;5.89;79.39;96988.02;109654;1272;22541;-61
2022/01/04 02:00:47;;;;;;;7.40;6.00;;;;;;;5.84;79.22;96983.92;109660;1274;23343;-60
2022/01/04 02:03:15;;;;;;;10.40;7.00;;;;;;;5.82;78.93;96980.71;109657;1274;22394;-60
2022/01/04 02:05:44;;;;;;;8.10;5.70;;;;;;;5.77;79.29;96975.80;109631;1276;22316;-60
2022/01/04 02:08:15;;;;;;;8.80;6.10;;;;;;;5.71;79.07;96972.58;109648;1274;22381;-60
2022/01/04 02:10:44;;;;;;;6.70;5.20;;;;;;;5.65;79.65;96971.69;109650;1274;22550;-61
2022/01/04 02:13:13;;;;;;;8.70;5.80;;;;;;;5.62;79.66;96971.80;109546;1274;137858;-61
2022/01/04 02:15:41;;;;;;;7.80;5.90;;;;;;;5.58;79.21;96958.11;109665;1274;22496;-61
2022/01/04 02:18:10;;;;;;;6.10;4.70;;;;;;;5.55;79.74;96955.80;109672;1274;22365;-62
2022/01/04 02:20:38;;;;;;;7.10;5.40;;;;;;;5.51;79.52;96949.77;109644;1272;22435;-61
2022/01/04 02:23:06;;;;;;;6.40;4.60;;;;;;;5.48;79.36;96944.68;109662;1274;22436;-61
2022/01/04 02:25:34;;;;;;;7.00;5.60;;;;;;;5.44;79.27;96941.73;109677;1274;23182;-62
2022/01/04 02:28:02;;;;;;;7.70;6.50;;;;;;;5.45;79.09;96938.64;109362;1274;396369;-60
2022/01/04 02:30:30;;;;;;;7.90;5.30;;;;;;;5.49;79.02;96931.14;109677;1274;23207;-61
2022/01/04 02:32:59;;;;;;;7.90;6.20;;;;;;;5.53;79.06;96930.25;109647;1272;23173;-61
2022/01/04 02:35:32;;;;;;;7.80;5.80;;;;;;;5.57;79.04;96928.45;109636;1274;22461;-62
2022/01/04 02:38:01;;;;;;;7.60;6.30;;;;;;;5.61;79.08;96921.82;109655;1273;23211;-61
2022/01/04 02:40:31;;;;;;;8.20;6.20;;;;;;;5.63;79.23;96921.96;109642;1274;22478;-61
2022/01/04 02:42:59;;;;;;;7.20;5.90;;;;;;;5.64;79.21;96918.27;109631;1274;22421;-61
2022/01/04 02:45:27;;;;;;;10.60;9.00;;;;;;;5.66;79.24;96920.68;109657;1273;22533;-62
2022/01/04 02:47:56;;;;;;;8.60;7.70;;;;;;;5.72;79.36;96911.73;109656;1274;22466;-61
2022/01/04 02:50:25;;;;;;;8.60;7.70;;;;;;;5.78;79.26;96901.61;109651;1274;22517;-61
2022/01/04 02:52:52;;;;;;;10.00;7.90;;;;;;;5.84;79.35;96898.50;109669;1274;23182;-62
2022/01/04 02:55:21;;;;;;;10.30;8.40;;;;;;;5.87;79.49;96899.77;109642;1273;22463;-61
2022/01/04 02:57:49;;;;;;;11.10;8.70;;;;;;;5.89;79.39;96897.29;109664;1272;23235;-62
2022/01/04 03:00:18;;;;;;;13.00;11.00;;;;;;;5.90;79.18;96888.06;109657;1274;22532;-62
2022/01/04 03:02:46;;;;;;;13.40;11.80;;;;;;;5.90;79.16;96885.81;109628;1274;22417;-61
2022/01/04 03:05:15;;;;;;;10.80;9.70;;;;;;;5.90;79.26;96883.73;109682;1274;22578;-62
2022/01/04 03:07:43;;;;;;;11.30;10.20;;;;;;;5.92;79.45;96875.27;109701;1272;22375;-62
2022/01/04 03:10:11;;;;;;;12.10;10.70;;;;;;;5.92;79.38;96867.36;109692;1274;22466;-61
2022/01/04 03:12:42;;;;;;;13.50;12.20;;;;;;;5.88;79.51;96869.66;109630;1275;22481;-62
2022/01/04 03:15:12;;;;;;;10.20;9.20;;;;;;;5.87;79.38;96859.14;109630;1273;22487;-61
2022/01/04 03:17:41;;;;;;;12.10;10.90;;;;;;;5.86;79.40;96853.59;109688;1274;22449;-61
2022/01/04 03:20:11;;;;;;;14.20;12.80;;;;;;;5.86;79.47;96851.98;109685;1274;22954;-62
2022/01/04 03:22:39;;;;;;;16.00;14.60;;;;;;;5.86;79.58;96844.98;109677;1274;22426;-62
2022/01/04 03:25:08;;;;;;;17.00;15.60;;;;;;;5.85;79.84;96836.19;109634;1275;23090;-62
2022/01/04 03:27:37;;;;;;;16.10;14.70;;;;;;;5.84;79.80;96828.93;109683;1272;23627;-61
2022/01/04 03:30:06;;;;;;;12.20;11.00;;;;;;;5.81;79.72;96821.91;109668;1273;22374;-63
2022/01/04 03:32:34;;;;;;;10.30;9.30;;;;;;;5.81;79.65;96817.97;109690;1273;22530;-61
2022/01/04 03:35:02;;;;;;;13.90;12.50;;;;;;;5.80;79.67;96812.43;109690;1274;22428;-61
2022/01/04 03:37:30;;;;;;;17.40;15.90;;;;;;;5.79;79.86;96809.70;109684;1273;22428;-62
2022/01/04 03:39:58;;;;;;;18.40;15.50;;;;;;;5.76;79.92;96808.38;109512;1274;22258;-62
2022/01/04 03:42:26;;;;;;;15.70;14.20;;;;;;;5.74;79.97;96805.11;109682;1273;23141;-62
2022/01/04 03:44:54;;;;;;;16.70;14.90;;;;;;;5.73;80.06;96803.84;109620;1275;23187;-62
2022/01/04 03:47:22;;;;;;;11.10;9.00;;;;;;;5.75;80.46;96804.98;109680;1274;22470;-62
2022/01/04 03:49:50;;;;;;;8.50;7.60;;;;;;;5.80;80.54;96800.92;109696;1272;22583;-61
2022/01/04 03:52:18;;;;;;;9.50;8.40;;;;;;;5.84;80.51;96796.63;109682;1274;22452;-62
2022/01/04 03:54:46;;;;;;;13.00;10.80;;;;;;;5.83;80.22;96792.59;109691;1274;22391;-61
2022/01/04 03:57:14;;;;;;;13.80;12.10;;;;;;;5.79;80.45;96792.39;109680;1273;23320;-61
2022/01/04 03:59:42;;;;;;;9.30;8.20;;;;;;;5.80;80.46;96795.54;109671;1274;22507;-62
2022/01/04 04:02:11;;;;;;;8.80;7.60;;;;;;;5.84;80.59;96793.70;109687;1272;23232;-61
2022/01/04 04:04:39;;;;;;;11.00;9.70;;;;;;;5.87;80.71;96795.99;109686;1274;22404;-60
2022/01/04 04:07:07;;;;;;;10.10;8.20;;;;;;;5.90;80.73;96789.35;109680;1274;22455;-60
2022/01/04 04:09:36;;;;;;;12.90;11.60;;;;;;;5.94;81.08;96787.97;109675;1274;22476;-60
2022/01/04 04:12:05;;;;;;;18.00;16.20;;;;;;;5.97;81.18;96783.81;109672;1272;22495;-60
2022/01/04 04:14:33;;;;;;;18.50;16.60;;;;;;;5.97;80.78;96780.56;109675;1272;22486;-61
2022/01/04 04:17:12;;;;;;;18.30;16.50;;;;;;;6.00;80.84;96776.55;109664;1274;22387;-61
2022/01/04 04:19:40;;;;;;;15.50;14.10;;;;;;;6.05;80.96;96775.85;109613;1274;22550;-61
2022/01/04 04:22:08;;;;;;;16.00;14.60;;;;;;;6.09;81.04;96776.98;109689;1271;23210;-61
2022/01/04 04:24:36;;;;;;;14.60;13.20;;;;;;;6.12;81.25;96775.63;109669;1274;22440;-61
2022/01/04 04:27:04;;;;;;;14.10;12.70;;;;;;;6.11;80.92;96779.59;109666;1274;22483;-60
2022/01/04 04:29:33;;;;;;;13.50;12.00;;;;;;;6.08;80.94;96779.44;109665;1272;23165;-60
2022/01/04 04:32:02;;;;;;;11.00;9.90;;;;;;;6.07;81.03;96778.65;109685;1274;22464;-61
2022/01/04 04:34:30;;;;;;;13.50;11.30;;;;;;;6.13;81.42;96778.54;109670;1274;22569;-61
2022/01/04 04:36:58;;;;;;;13.00;11.70;;;;;;;6.19;81.27;96780.19;109677;1274;22855;-61
2022/01/04 04:39:26;;;;;;;14.20;12.70;;;;;;;6.20;81.41;96780.11;109652;1274;22575;-61
2022/01/04 04:41:55;;;;;;;17.30;15.70;;;;;;;6.18;81.19;96772.88;109676;1274;22707;-61
2022/01/04 04:44:23;;;;;;;16.70;15.10;;;;;;;6.14;81.20;96769.09;109678;1274;22444;-61
2022/01/04 04:46:51;;;;;;;12.10;11.00;;;;;;;6.15;81.28;96764.33;109661;1274;22461;-61
2022/01/04 04:49:19;;;;;;;13.10;11.70;;;;;;;6.16;81.47;96761.59;109687;1274;22515;-61
2022/01/04 04:51:47;;;;;;;13.90;12.70;;;;;;;6.18;81.49;96759.02;109659;1274;22407;-61
2022/01/04 04:54:15;;;;;;;16.20;14.60;;;;;;;6.18;81.47;96750.84;109664;1274;22498;-61
2022/01/04 04:56:44;;;;;;;14.10;12.70;;;;;;;6.16;81.60;96745.20;109679;1272;23234;-60
2022/01/04 04:59:12;;;;;;;14.50;13.20;;;;;;;6.16;81.52;96743.94;109680;1272;23304;-61
2022/01/04 05:01:41;;;;;;;16.10;14.50;;;;;;;6.18;81.58;96745.17;109690;1274;22445;-61
2022/01/04 05:04:09;;;;;;;15.60;14.20;;;;;;;6.20;81.51;96742.84;109678;1274;22353;-61
2022/01/04 05:06:37;;;;;;;17.20;15.70;;;;;;;6.22;81.58;96735.95;109652;1274;22382;-60
2022/01/04 05:09:05;;;;;;;19.00;16.60;;;;;;;6.22;81.69;96734.53;109667;1273;22255;-61
2022/01/04 05:11:33;;;;;;;17.30;15.50;;;;;;;6.24;81.94;96737.02;109649;1274;22446;-61
2022/01/04 05:14:01;;;;;;;15.70;14.30;;;;;;;6.25;81.75;96734.88;109661;1274;22552;-61
2022/01/04 05:16:29;;;;;;;15.10;13.60;;;;;;;6.26;81.70;96734.25;109629;1275;23145;-60
2022/01/04 05:18:57;;;;;;;15.90;14.00;;;;;;;6.25;81.85;96734.54;109657;1273;22592;-61
2022/01/04 05:21:25;;;;;;;18.60;16.70;;;;;;;6.27;81.88;96731.40;109592;1274;22550;-60
2022/01/04 05:23:54;;;;;;;17.80;16.10;;;;;;;6.27;81.95;96725.15;109619;1274;22447;-61
2022/01/04 05:26:22;;;;;;;18.10;16.40;;;;;;;6.24;81.94;96716.80;109666;1274;22456;-61
2022/01/04 05:28:50;;;;;;;20.60;18.60;;;;;;;6.23;81.85;96714.59;109663;1274;22433;-61
2022/01/04 05:31:18;;;;;;;18.20;16.50;;;;;;;6.23;81.86;96711.73;109653;1274;22566;-61
2022/01/04 05:33:47;;;;;;;18.60;17.00;;;;;;;6.24;81.93;96710.39;109647;1274;22267;-61
2022/01/04 05:36:15;;;;;;;22.50;20.30;;;;;;;6.23;81.88;96709.82;109657;1274;22400;-61
2022/01/04 05:38:44;;;;;;;25.40;23.10;;;;;;;6.18;81.78;96708.74;109653;1273;22428;-61
2022/01/04 05:41:12;;;;;;;25.00;22.80;;;;;;;6.10;81.85;96704.67;109550;1274;137730;-60
2022/01/04 05:43:41;;;;;;;22.30;20.10;;;;;;;6.09;81.81;96704.48;109660;1274;22445;-60
2022/01/04 05:46:09;;;;;;;22.90;20.90;;;;;;;6.09;81.88;96701.02;109646;1274;23612;-61
2022/01/04 05:48:37;;;;;;;25.00;22.70;;;;;;;6.08;81.92;96699.30;109647;1274;23101;-61
2022/01/04 05:51:05;;;;;;;24.20;22.00;;;;;;;6.09;82.12;96697.21;109657;1274;22614;-62
2022/01/04 05:53:33;;;;;;;20.40;18.60;;;;;;;6.07;82.06;96689.33;109676;1274;22432;-61
2022/01/04 05:56:02;;;;;;;22.20;20.00;;;;;;;6.04;81.97;96685.02;109671;1274;22517;-62
2022/01/04 05:58:30;;;;;;;20.60;18.70;;;;;;;6.02;81.94;96682.90;109662;1274;22550;-61
2022/01/04 06:00:59;;;;;;;24.90;22.70;;;;;;;6.02;82.05;96684.30;109662;1274;23195;-62
2022/01/04 06:03:28;;;;;;;21.50;19.30;;;;;;;6.04;82.29;96683.15;109665;1274;22468;-62
2022/01/04 06:05:56;;;;;;;27.60;25.30;;;;;;;6.05;82.46;96679.00;109643;1274;22431;-62
2022/01/04 06:08:30;;;;;;;23.70;21.50;;;;;;;6.03;82.37;96680.38;109653;1274;22468;-62
2022/01/04 06:10:58;;;;;;;20.20;18.20;;;;;;;6.05;82.37;96681.68;109661;1274;23195;-62
2022/01/04 06:16:12;;;;;;;17.30;15.70;;;;;;;6.08;82.41;96675.36;109661;1273;22482;-61
2022/01/04 06:18:42;;;;;;;23.40;21.10;;;;;;;6.07;82.51;96671.14;109664;1274;22460;-61
2022/01/04 06:21:11;;;;;;;26.30;23.90;;;;;;;6.06;82.54;96673.52;109669;1274;22438;-61
2022/01/04 06:23:39;;;;;;;24.60;22.30;;;;;;;6.06;82.54;96671.27;109671;1274;22393;-60
2022/01/04 06:26:07;;;;;;;29.60;26.80;;;;;;;6.05;82.65;96675.10;109662;1274;22523;-62
2022/01/04 06:28:37;;;;;;;36.70;32.80;;;;;;;6.09;82.74;96675.18;109663;1274;22424;-61
2022/01/04 06:31:05;;;;;;;40.60;36.40;;;;;;;6.14;82.81;96670.57;109658;1274;22615;-62
2022/01/04 06:33:33;;;;;;;43.70;39.20;;;;;;;6.15;82.70;96665.38;109662;1274;23174;-62
2022/01/04 06:36:01;;;;;;;41.10;37.00;;;;;;;6.16;82.86;96664.48;109667;1274;22555;-61
2022/01/04 06:38:29;;;;;;;35.70;32.20;;;;;;;6.16;82.74;96663.70;109664;1274;22516;-60
2022/01/04 06:40:56;;;;;;;38.90;34.80;;;;;;;6.19;82.94;96657.75;109650;1274;23084;-62
2022/01/04 06:43:24;;;;;;;46.10;41.20;;;;;;;6.19;82.68;96654.69;109653;1274;22484;-62
2022/01/04 06:45:53;;;;;;;45.80;41.40;;;;;;;6.20;82.71;96650.55;109653;1274;22378;-62
2022/01/04 06:48:21;;;;;;;45.70;41.20;;;;;;;6.22;82.93;96649.29;109663;1274;22472;-62
2022/01/04 06:50:49;;;;;;;42.90;38.70;;;;;;;6.25;83.13;96644.73;109670;1274;23189;-61
2022/01/04 06:53:17;;;;;;;36.50;32.90;;;;;;;6.25;83.03;96641.23;109662;1274;23174;-60
2022/01/04 06:55:50;;;;;;;38.10;33.60;;;;;;;6.26;83.05;96640.20;109643;1274;22978;-60
2022/01/04 06:58:18;;;;;;;38.50;34.60;;;;;;;6.27;82.90;96638.82;109603;1274;22448;-60
2022/01/04 07:00:46;;;;;;;33.10;29.80;;;;;;;6.30;82.95;96636.42;109543;1274;138086;-62
2022/01/04 07:03:14;;;;;;;31.90;28.90;;;;;;;6.30;83.04;96641.19;109661;1274;22461;-60
2022/01/04 07:05:43;;;;;;;32.00;29.10;;;;;;;6.30;83.24;96639.67;109656;1274;22509;-64
2022/01/04 07:08:11;;;;;;;29.70;26.90;;;;;;;6.28;83.12;96634.33;109663;1272;22431;-60
2022/01/04 07:10:39;;;;;;;30.50;27.50;;;;;;;6.25;83.11;96631.38;109649;1274;23176;-61
2022/01/04 07:13:07;;;;;;;39.70;35.30;;;;;;;6.24;82.97;96632.15;109680;1274;22591;-60
2022/01/04 07:15:36;;;;;;;39.40;35.50;;;;;;;6.24;82.84;96629.16;109611;1274;22439;-61
2022/01/04 07:18:11;;;;;;;40.40;36.40;;;;;;;6.22;83.24;96627.45;109668;1274;22515;-61
2022/01/04 07:20:53;;;;;;;40.80;36.60;;;;;;;6.21;83.46;96623.63;109652;1274;23071;-60
2022/01/04 07:23:22;;;;;;;35.70;32.30;;;;;;;6.20;83.56;96617.85;109620;1274;22480;-60
2022/01/04 07:25:51;;;;;;;33.40;30.30;;;;;;;6.22;83.64;96615.64;109658;1274;22606;-61
2022/01/04 07:28:23;;;;;;;34.80;31.50;;;;;;;6.26;83.64;96611.05;109670;1274;22485;-60
2022/01/04 07:30:51;;;;;;;33.70;30.50;;;;;;;6.32;83.73;96602.58;109613;1275;22502;-61
2022/01/04 07:33:21;;;;;;;36.50;33.10;;;;;;;6.38;83.77;96598.69;109651;1274;22457;-61
2022/01/04 07:35:55;;;;;;;42.30;38.20;;;;;;;6.40;83.90;96591.23;109611;1275;22468;-61
2022/01/04 07:38:37;;;;;;;39.70;35.80;;;;;;;6.42;83.90;96583.55;109603;1275;23476;-60
2022/01/04 07:41:12;;;;;;;36.40;32.50;;;;;;;6.43;83.76;96583.30;109684;1274;23184;-61
2022/01/04 07:43:44;;;;;;;31.60;28.30;;;;;;;6.47;83.79;96577.45;109656;1274;22409;-61
2022/01/04 07:46:27;;;;;;;34.60;31.20;;;;;;;6.54;83.87;96576.89;109667;1274;22432;-61
2022/01/04 07:49:00;;;;;;;28.90;26.10;;;;;;;6.59;83.89;96577.02;109693;1274;22512;-61
2022/01/04 07:51:33;;;;;;;28.10;25.60;;;;;;;6.63;83.88;96570.75;109686;1274;22423;-61
2022/01/04 07:54:02;;;;;;;27.50;24.90;;;;;;;6.65;84.15;96567.27;109689;1274;23297;-61
2022/01/04 07:56:34;;;;;;;29.90;27.20;;;;;;;6.71;84.08;96566.11;109607;1274;22457;-61
2022/01/04 07:59:07;;;;;;;25.20;22.80;;;;;;;6.77;84.10;96562.08;109595;1274;23858;-61
2022/01/04 08:01:41;;;;;;;27.70;25.20;;;;;;;6.82;84.00;96565.39;109689;1274;22520;-61
2022/01/04 08:04:12;;;;;;;25.30;22.90;;;;;;;6.86;84.02;96566.76;109614;1275;22415;-59
2022/01/04 08:06:42;;;;;;;26.80;24.20;;;;;;;6.91;84.16;96559.66;109684;1274;22422;-61
2022/01/04 08:09:11;;;;;;;21.90;19.50;;;;;;;6.93;84.07;96552.96;109682;1274;22505;-61
2022/01/04 08:11:44;;;;;;;23.50;21.30;;;;;;;6.95;84.09;96551.40;109698;1274;22495;-61
2022/01/04 08:14:18;;;;;;;26.10;23.60;;;;;;;6.99;83.99;96546.27;109547;1274;138508;-60
2022/01/04 08:16:53;;;;;;;27.00;24.60;;;;;;;7.06;83.94;96540.73;109503;1274;22537;-61
2022/01/04 08:19:22;;;;;;;29.20;26.50;;;;;;;7.07;84.05;96532.55;109470;1274;22637;-61
2022/01/04 08:21:54;;;;;;;28.70;26.00;;;;;;;7.08;84.10;96525.02;109587;1276;22538;-61
2022/01/04 08:24:28;;;;;;;27.30;24.80;;;;;;;7.10;84.08;96517.50;109665;1273;22508;-61
2022/01/04 08:27:01;;;;;;;20.90;18.90;;;;;;;7.12;84.08;96516.50;109676;1274;22576;-61
2022/01/04 08:29:31;;;;;;;17.60;15.90;;;;;;;7.15;84.10;96510.11;109577;1275;22458;-61
2022/01/04 08:32:04;;;;;;;16.90;15.40;;;;;;;7.16;84.05;96498.62;109618;1277;23170;-61
2022/01/04 08:34:34;;;;;;;15.60;13.90;;;;;;;7.17;83.99;96498.33;109678;1274;22442;-60
2022/01/04 08:37:02;;;;;;;13.70;12.30;;;;;;;7.15;83.96;96487.77;109605;1275;22553;-61
2022/01/04 08:39:35;;;;;;;16.10;14.40;;;;;;;7.11;84.11;96487.98;109693;1274;22502;-61
2022/01/04 08:42:10;;;;;;;24.60;22.10;;;;;;;7.11;84.02;96486.43;109600;1276;22466;-62
2022/01/04 08:44:42;;;;;;;36.50;30.90;;;;;;;7.14;83.99;96476.80;109700;1274;22616;-61
2022/01/04 08:47:12;;;;;;;34.30;30.60;;;;;;;7.15;83.94;96465.89;109708;1274;22394;-61
2022/01/04 08:49:40;;;;;;;31.10;28.10;;;;;;;7.13;84.06;96461.11;109593;1276;22459;-62
2022/01/04 08:52:08;;;;;;;30.90;28.00;;;;;;;7.11;84.00;96460.09;109671;1274;22429;-61
2022/01/04 08:54:36;;;;;;;25.10;22.60;;;;;;;7.07;83.84;96455.92;109594;1275;22551;-61
2022/01/04 08:57:04;;;;;;;22.20;20.20;;;;;;;7.06;84.18;96455.45;109564;1276;22563;-60
2022/01/04 08:59:33;;;;;;;21.60;19.70;;;;;;;7.08;83.93;96443.66;109659;1274;22489;-61
2022/01/04 09:02:01;;;;;;;22.90;20.80;;;;;;;7.08;83.91;96440.61;109579;1275;22548;-61
2022/01/04 09:04:29;;;;;;;24.20;21.90;;;;;;;7.08;84.15;96436.08;109586;1275;22540;-61
2022/01/04 09:06:58;;;;;;;28.00;25.40;;;;;;;7.07;83.99;96433.90;109600;1276;22532;-63
2022/01/04 09:09:26;;;;;;;29.00;26.30;;;;;;;7.04;84.08;96428.77;109655;1274;22493;-62
2022/01/04 09:12:15;;;;;;;27.10;24.40;;;;;;;7.01;83.97;96422.13;109653;1274;22373;-61
2022/01/04 09:20:21;;;;;;;23.00;20.70;;;;;;;7.01;84.13;96402.27;109668;1274;23257;-61
2022/01/04 09:22:49;;;;;;;21.40;19.40;;;;;;;7.02;84.19;96397.02;109598;1273;22547;-61
2022/01/04 09:25:18;;;;;;;23.70;21.30;;;;;;;6.98;84.09;96390.92;109589;1276;22471;-60
2022/01/04 09:27:46;;;;;;;29.30;26.30;;;;;;;6.94;83.88;96382.63;109660;1274;22395;-61
2022/01/04 09:30:14;;;;;;;31.60;28.60;;;;;;;6.93;84.19;96375.86;109670;1274;23133;-61
2022/01/04 09:32:43;;;;;;;29.10;26.40;;;;;;;6.93;84.15;96374.65;109689;1274;22452;-61
2022/01/04 09:35:12;;;;;;;35.50;32.20;;;;;;;6.94;84.41;96368.80;109579;1275;23227;-61
2022/01/04 09:37:41;;;;;;;33.60;30.40;;;;;;;6.95;84.28;96364.94;109676;1274;22387;-61
2022/01/04 09:40:10;;;;;;;30.30;27.50;;;;;;;6.94;84.55;96357.30;109603;1276;22547;-60
2022/01/04 09:42:38;;;;;;;25.80;23.40;;;;;;;6.96;84.49;96353.88;109608;1276;22509;-60
2022/01/04 09:45:07;;;;;;;25.90;23.40;;;;;;;6.98;84.39;96343.52;109593;1276;22471;-62
2022/01/04 09:47:35;;;;;;;33.20;30.20;;;;;;;7.04;84.67;96335.05;109616;1275;22428;-63
2022/01/04 09:50:08;;;;;;;33.00;29.70;;;;;;;7.06;84.41;96324.75;109625;1275;22588;-61
2022/01/04 09:52:44;;;;;;;32.90;29.90;;;;;;;7.04;84.36;96316.11;109583;1275;23175;-61
2022/01/04 09:55:14;;;;;;;29.30;26.40;;;;;;;7.02;84.48;96306.13;109519;1274;137684;-62
2022/01/04 09:57:45;;;;;;;29.10;26.10;;;;;;;7.07;84.55;96300.98;109612;1274;22482;-61
2022/01/04 10:00:17;;;;;;;28.10;25.20;;;;;;;7.10;84.63;96298.65;109599;1275;22464;-61
2022/01/04 10:02:49;;;;;;;32.00;28.60;;;;;;;7.14;84.52;96294.20;109605;1275;22394;-61
2022/01/04 10:05:25;;;;;;;30.10;27.10;;;;;;;7.21;84.76;96291.02;109591;1275;22443;-61
2022/01/04 10:08:01;;;;;;;40.30;36.10;;;;;;;7.22;84.77;96291.20;109433;1276;22504;-61
2022/01/04 10:10:30;;;;;;;39.20;35.40;;;;;;;7.31;84.78;96289.10;109473;1277;22483;-62
2022/01/04 10:13:18;;;;;;;43.60;39.20;;;;;;;7.37;84.74;96285.23;109450;1277;22472;-61
2022/01/04 10:15:48;;;;;;;33.90;30.40;;;;;;;7.44;84.49;96280.64;109512;1276;22369;-61
2022/01/04 10:18:17;;;;;;;33.00;29.70;;;;;;;7.49;84.64;96284.54;109472;1277;23069;-62
2022/01/04 10:20:48;;;;;;;32.90;28.80;;;;;;;7.56;84.67;96279.77;109507;1276;22495;-62
2022/01/04 10:23:20;;;;;;;30.90;27.50;;;;;;;7.63;84.72;96274.14;109503;1276;22420;-62
2022/01/04 10:26:00;;;;;;;35.20;31.60;;;;;;;7.66;84.79;96271.45;109362;1277;22554;-62
2022/01/04 10:28:35;;;;;;;24.30;21.90;;;;;;;7.69;84.92;96268.67;109485;1277;23207;-61
2022/01/04 10:31:06;;;;;;;28.70;23.40;;;;;;;7.75;84.64;96262.85;109513;1276;22614;-61
2022/01/04 10:33:35;;;;;;;24.30;21.80;;;;;;;7.81;84.92;96257.12;109355;1277;138164;-61
2022/01/04 10:36:11;;;;;;;22.40;20.20;;;;;;;7.86;84.79;96252.12;109566;1276;22549;-60
2022/01/04 10:38:42;;;;;;;17.90;15.60;;;;;;;7.90;84.58;96247.53;109501;1276;22395;-61
2022/01/04 10:41:16;;;;;;;21.70;19.50;;;;;;;7.94;84.33;96246.21;109490;1276;22554;-62
2022/01/04 10:43:50;;;;;;;24.80;21.60;;;;;;;7.98;84.28;96239.17;109567;1275;22526;-61
2022/01/04 10:46:30;;;;;;;19.30;15.50;;;;;;;7.99;84.55;96233.59;109561;1275;22428;-61
2022/01/04 10:48:59;;;;;;;15.70;13.90;;;;;;;8.02;84.49;96232.30;109576;1275;23328;-60
2022/01/04 10:51:28;;;;;;;18.40;16.50;;;;;;;8.05;84.59;96231.04;109583;1276;22542;-61
2022/01/04 10:54:06;;;;;;;19.00;16.60;;;;;;;8.10;84.72;96226.17;109481;1276;22493;-61
2022/01/04 10:56:37;;;;;;;16.80;15.10;;;;;;;8.15;84.73;96224.98;109569;1276;22440;-62
2022/01/04 10:59:10;;;;;;;16.30;14.40;;;;;;;8.19;84.30;96225.69;109558;1275;22495;-61
2022/01/04 11:01:47;;;;;;;19.80;17.60;;;;;;;8.20;84.32;96225.43;109598;1275;22384;-66
2022/01/04 11:04:20;;;;;;;19.50;16.30;;;;;;;8.21;84.70;96224.23;109546;1275;22542;-63
2022/01/04 11:06:56;;;;;;;17.50;15.50;;;;;;;8.23;84.37;96222.67;109573;1275;23188;-67
2022/01/04 11:09:25;;;;;;;17.40;15.60;;;;;;;8.23;83.88;96219.54;109524;1277;23227;-62
2022/01/04 11:11:53;;;;;;;18.50;16.60;;;;;;;8.26;84.34;96217.35;109484;1276;22533;-63
2022/01/04 11:14:21;;;;;;;16.20;14.60;;;;;;;8.31;84.37;96211.27;109565;1276;22361;-61
2022/01/04 11:16:49;;;;;;;26.00;23.40;;;;;;;8.33;84.34;96212.95;109475;1276;22547;-62
2022/01/04 11:19:19;;;;;;;12.60;11.30;;;;;;;8.33;84.41;96207.54;109571;1275;23270;-62
2022/01/04 11:21:49;;;;;;;9.80;8.70;;;;;;;8.32;83.99;96206.27;109588;1275;22505;-62
2022/01/04 11:24:17;;;;;;;151.10;115.80;;;;;;;8.33;84.19;96200.92;109434;1275;138795;-61
2022/01/04 11:26:48;;;;;;;13.50;12.20;;;;;;;8.35;84.07;96195.42;109346;1277;22444;-61
2022/01/04 11:29:20;;;;;;;147.50;106.80;;;;;;;8.38;84.06;96188.98;109478;1276;22590;-61
2022/01/04 11:31:54;;;;;;;131.00;102.50;;;;;;;8.40;84.42;96186.19;109492;1277;22562;-62
2022/01/04 11:35:00;;;;;;;12.40;11.20;;;;;;;8.40;84.57;96182.69;109346;1277;22496;-63
2022/01/04 11:37:38;;;;;;;7.80;6.90;;;;;;;8.39;84.16;96170.89;109478;1276;22568;-61
2022/01/04 11:40:34;;;;;;;9.10;7.90;;;;;;;8.39;84.22;96163.94;109501;1276;22427;-61
2022/01/04 11:43:23;;;;;;;9.20;7.90;;;;;;;8.47;84.34;96160.77;109492;1275;22439;-62